Time;durP1;ratioP1;P1;durP2;ratioP2;P2;SDS_P1;SDS_P2;PMS_P1;PMS_P2;Temp;Humidity;BMP_temperature;BMP_pressure;BME280_temperature;BME280_humidity;BME280_pressure;Samples;Min_cycle;Max_cycle;Signal;HPM_P1;HPM_P2
2021/07/31 00:02:27;;;;;;;3.47;3.17;;;21.60;99.90;;;;;;7678116;23;20248;-65
2021/07/31 00:05:30;;;;;;;3.77;3.47;;;21.60;99.90;;;;;;7677937;23;20200;-65
2021/07/31 00:08:33;;;;;;;9.67;3.40;;;21.60;99.90;;;;;;7678131;23;20164;-65
2021/07/31 00:11:35;;;;;;;4.00;3.13;;;21.50;99.90;;;;;;7651434;23;20168;-64
2021/07/31 00:14:37;;;;;;;3.90;3.43;;;21.50;99.90;;;;;;7677708;23;20241;-65
2021/07/31 00:17:40;;;;;;;7.70;3.47;;;21.50;99.90;;;;;;7677817;23;20192;-65
2021/07/31 00:20:42;;;;;;;3.87;3.37;;;21.40;99.90;;;;;;7651068;23;20200;-65
2021/07/31 00:23:45;;;;;;;3.43;3.13;;;21.40;99.90;;;;;;7677893;23;20156;-65
2021/07/31 00:26:47;;;;;;;3.70;3.13;;;21.30;99.90;;;;;;7651993;23;20183;-65
2021/07/31 00:29:49;;;;;;;4.47;3.20;;;21.30;99.90;;;;;;7651907;23;20175;-65
2021/07/31 00:32:51;;;;;;;4.17;3.17;;;21.30;99.90;;;;;;7627127;23;20172;-64
2021/07/31 00:35:54;;;;;;;4.00;3.60;;;21.30;99.90;;;;;;7677533;23;20170;-65
2021/07/31 00:38:56;;;;;;;4.33;3.17;;;21.30;99.90;;;;;;7678133;23;20167;-65
2021/07/31 00:41:58;;;;;;;11.73;3.10;;;21.40;99.90;;;;;;7651211;23;20180;-65
2021/07/31 00:45:00;;;;;;;3.20;2.90;;;21.40;99.90;;;;;;7677430;23;20255;-65
2021/07/31 00:48:05;;;;;;;3.20;2.83;;;21.50;99.90;;;;;;7677404;23;20524;-65
2021/07/31 00:51:08;;;;;;;3.33;3.03;;;21.50;99.90;;;;;;7651204;23;20164;-65
2021/07/31 00:54:10;;;;;;;3.17;2.73;;;21.50;99.80;;;;;;7677496;23;20160;-65
2021/07/31 00:57:15;;;;;;;3.97;3.33;;;21.50;99.80;;;;;;7650604;23;20164;-65
2021/07/31 01:00:39;;;;;;;3.60;3.27;;;21.50;99.40;;;;;;7651059;23;20173;-65
2021/07/31 01:03:42;;;;;;;3.33;3.03;;;21.50;99.50;;;;;;7678033;23;20175;-65
2021/07/31 01:06:47;;;;;;;3.53;3.23;;;21.50;99.50;;;;;;7677084;23;20284;-65
2021/07/31 01:09:50;;;;;;;4.07;3.13;;;21.60;98.80;;;;;;7677484;23;20191;-65
2021/07/31 01:12:54;;;;;;;3.03;2.80;;;21.50;98.30;;;;;;7650973;23;20176;-65
2021/07/31 01:16:02;;;;;;;3.40;2.77;;;21.60;97.70;;;;;;7677258;23;20188;-65
2021/07/31 01:19:06;;;;;;;3.00;2.70;;;21.60;98.20;;;;;;7651191;23;20168;-65
2021/07/31 01:22:09;;;;;;;3.13;2.63;;;21.60;98.10;;;;;;7650461;23;20212;-65
2021/07/31 01:25:12;;;;;;;3.20;2.50;;;21.50;98.40;;;;;;7650480;23;20616;-65
2021/07/31 01:28:16;;;;;;;2.97;2.77;;;21.50;97.00;;;;;;7651484;23;20164;-65
2021/07/31 01:31:19;;;;;;;3.43;2.73;;;21.50;97.00;;;;;;7677384;23;20164;-65
2021/07/31 01:34:21;;;;;;;2.60;2.40;;;21.50;97.00;;;;;;7677282;23;20176;-64
2021/07/31 01:37:25;;;;;;;2.83;2.63;;;21.40;97.90;;;;;;7676893;23;20164;-65
2021/07/31 01:40:28;;;;;;;3.20;2.77;;;21.30;98.30;;;;;;7650556;23;20179;-65
2021/07/31 01:43:32;;;;;;;3.77;2.50;;;21.20;98.20;;;;;;7650639;23;20671;-65
2021/07/31 01:46:34;;;;;;;3.33;2.40;;;21.20;97.10;;;;;;7677284;23;20188;-65
2021/07/31 01:49:37;;;;;;;2.83;2.63;;;21.10;96.70;;;;;;7650562;23;20172;-65
2021/07/31 01:52:46;;;;;;;2.63;2.43;;;21.10;97.00;;;;;;7677064;23;20173;-65
2021/07/31 01:55:50;;;;;;;3.00;2.50;;;21.10;97.40;;;;;;7676902;23;20307;-65
2021/07/31 01:58:53;;;;;;;2.53;2.33;;;21.10;97.70;;;;;;7650630;23;20195;-64
2021/07/31 02:01:56;;;;;;;2.50;2.30;;;21.00;98.20;;;;;;7676987;23;20175;-65
2021/07/31 02:05:05;;;;;;;3.07;2.17;;;20.90;98.60;;;;;;7652115;23;20185;-65
2021/07/31 02:08:29;;;;;;;2.70;2.50;;;20.80;99.20;;;;;;7650498;23;20161;-65
2021/07/31 02:11:32;;;;;;;3.13;2.10;;;20.70;99.50;;;;;;7651157;23;20172;-65
2021/07/31 02:14:36;;;;;;;2.53;2.33;;;20.60;99.60;;;;;;7676945;23;20621;-65
2021/07/31 02:17:39;;;;;;;2.70;2.50;;;20.50;99.80;;;;;;7650459;23;20219;-64
2021/07/31 02:20:42;;;;;;;2.40;2.20;;;20.40;99.70;;;;;;7676740;23;20679;-65
2021/07/31 02:24:05;;;;;;;2.57;2.37;;;20.30;99.90;;;;;;7676397;23;20172;-65
2021/07/31 02:27:10;;;;;;;2.70;2.50;;;20.20;99.90;;;;;;7676768;23;20249;-65
2021/07/31 02:30:33;;;;;;;2.50;2.30;;;20.20;99.90;;;;;;7676902;23;20207;-65
2021/07/31 02:33:36;;;;;;;3.30;2.40;;;20.20;99.90;;;;;;7678768;23;20176;-65
2021/07/31 02:36:39;;;;;;;4.13;2.03;;;20.00;99.90;;;;;;7679032;23;20672;-65
2021/07/31 02:39:54;;;;;;;2.90;2.60;;;20.00;99.90;;;;;;7652808;23;20256;-65
2021/07/31 02:42:57;;;;;;;3.33;2.17;;;19.90;99.90;;;;;;7652738;23;20250;-65
2021/07/31 02:46:04;;;;;;;3.13;2.83;;;19.90;99.90;;;;;;7652686;23;20219;-65
2021/07/31 02:49:07;;;;;;;2.60;2.40;;;19.90;99.90;;;;;;7678913;23;20164;-64
2021/07/31 02:52:10;;;;;;;3.60;2.67;;;19.80;99.90;;;;;;7652399;23;20613;-65
2021/07/31 02:55:17;;;;;;;2.60;2.40;;;19.70;99.90;;;;;;7653853;23;20157;-65
2021/07/31 02:58:20;;;;;;;6.37;2.73;;;19.60;99.90;;;;;;7652403;23;20192;-65
2021/07/31 03:01:22;;;;;;;2.60;2.40;;;19.50;99.90;;;;;;7678695;23;20254;-64
2021/07/31 03:04:25;;;;;;;2.77;2.30;;;19.40;99.90;;;;;;7679224;23;20176;-64
2021/07/31 03:07:38;;;;;;;2.97;2.50;;;19.40;99.90;;;;;;7652050;23;20188;-65
2021/07/31 03:10:41;;;;;;;3.83;2.37;;;19.40;99.90;;;;;;7652918;23;20171;-65
2021/07/31 03:13:44;;;;;;;3.27;2.23;;;19.40;99.90;;;;;;7678853;23;20653;-64
2021/07/31 03:16:48;;;;;;;2.93;2.67;;;19.30;99.90;;;;;;7678544;23;20164;-64
2021/07/31 03:19:51;;;;;;;5.97;2.80;;;19.30;99.90;;;;;;7678592;23;20605;-65
2021/07/31 03:22:58;;;;;;;1.83;1.70;;;19.20;99.90;;;;;;7653312;23;20664;-65
2021/07/31 03:26:01;;;;;;;2.50;2.30;;;19.20;99.90;;;;;;7651843;23;20195;-64
2021/07/31 03:29:03;;;;;;;2.57;2.37;;;19.30;99.90;;;;;;7652173;23;20179;-64
2021/07/31 03:32:07;;;;;;;3.93;2.50;;;19.40;99.90;;;;;;7652586;23;20184;-65
2021/07/31 03:35:09;;;;;;;5.53;2.40;;;19.40;99.90;;;;;;7678187;23;20691;-64
2021/07/31 03:38:43;;;;;;;2.60;2.30;;;19.40;99.90;;;;;;7596829;23;20184;-65
2021/07/31 03:41:46;;;;;;;3.53;2.57;;;19.40;99.90;;;;;;7678318;23;20188;-65
2021/07/31 03:44:49;;;;;;;3.03;2.40;;;19.40;99.90;;;;;;7651502;23;20251;-65
2021/07/31 03:47:52;;;;;;;2.03;1.93;;;19.50;99.90;;;;;;7678314;23;20249;-65
2021/07/31 03:50:56;;;;;;;2.60;2.40;;;19.50;99.90;;;;;;7651559;23;20218;-65
2021/07/31 03:54:08;;;;;;;2.63;2.43;;;19.50;99.90;;;;;;7651988;23;20176;-65
2021/07/31 03:57:11;;;;;;;2.50;2.30;;;19.50;99.90;;;;;;7677988;23;20164;-65
2021/07/31 04:00:20;;;;;;;3.50;2.97;;;19.50;99.90;;;;;;7678322;23;20175;-65
2021/07/31 04:03:30;;;;;;;2.47;2.27;;;19.50;99.90;;;;;;7654011;23;20246;-65
2021/07/31 04:06:32;;;;;;;2.97;2.70;;;19.50;99.90;;;;;;7651827;23;20199;-65
2021/07/31 04:10:04;;;;;;;2.73;2.53;;;19.50;99.90;;;;;;7546997;23;20187;-64
2021/07/31 04:13:36;;;;;;;2.60;2.40;;;19.50;99.90;;;;;;7645431;23;20659;-65
2021/07/31 04:16:48;;;;;;;2.70;2.50;;;19.50;99.90;;;;;;7677722;23;20153;-64
2021/07/31 04:19:52;;;;;;;3.40;2.90;;;19.50;99.90;;;;;;7677532;23;20213;-64
2021/07/31 04:22:56;;;;;;;2.83;2.60;;;19.40;99.90;;;;;;7677393;23;20508;-64
2021/07/31 04:26:15;;;;;;;3.70;2.40;;;19.40;99.90;;;;;;7677329;23;20177;-64
2021/07/31 04:29:17;;;;;;;3.80;2.67;;;19.40;99.90;;;;;;7677945;23;20239;-64
2021/07/31 04:32:19;;;;;;;2.60;2.40;;;19.50;99.90;;;;;;7677711;23;20164;-65
2021/07/31 04:35:21;;;;;;;2.73;2.53;;;19.40;99.90;;;;;;7677392;23;20246;-64
2021/07/31 04:38:24;;;;;;;2.63;2.43;;;19.50;99.90;;;;;;7677369;23;20534;-64
2021/07/31 04:41:26;;;;;;;3.37;2.50;;;19.50;99.90;;;;;;7677162;23;20184;-64
2021/07/31 04:44:28;;;;;;;2.67;2.47;;;19.50;99.90;;;;;;7651575;23;20178;-64
2021/07/31 04:47:41;;;;;;;3.00;2.53;;;19.60;99.90;;;;;;7650503;23;20648;-65
2021/07/31 04:50:43;;;;;;;2.80;2.50;;;19.70;99.90;;;;;;7677133;23;20161;-65
2021/07/31 04:53:47;;;;;;;2.60;2.40;;;19.80;99.90;;;;;;7677219;23;20210;-65
2021/07/31 04:56:49;;;;;;;2.60;2.40;;;20.00;99.90;;;;;;7677014;23;20243;-65
2021/07/31 04:59:53;;;;;;;3.10;2.33;;;20.10;99.90;;;;;;7677275;23;20705;-65
2021/07/31 05:02:55;;;;;;;2.33;2.10;;;20.20;99.90;;;;;;7676973;23;20318;-64
2021/07/31 05:05:58;;;;;;;2.30;2.10;;;20.40;99.90;;;;;;7676636;23;20211;-65
2021/07/31 05:09:00;;;;;;;2.87;2.20;;;20.60;99.90;;;;;;7677026;23;20171;-65
2021/07/31 05:12:02;;;;;;;2.10;1.90;;;20.80;99.90;;;;;;7676895;23;20195;-65
2021/07/31 05:15:05;;;;;;;2.50;2.30;;;21.00;99.90;;;;;;7676973;23;20218;-65
2021/07/31 05:18:09;;;;;;;2.30;2.10;;;21.10;99.90;;;;;;7676646;23;20161;-64
2021/07/31 05:21:12;;;;;;;3.17;1.80;;;21.20;99.90;;;;;;7676824;23;20199;-65
2021/07/31 05:24:14;;;;;;;2.23;2.03;;;21.40;99.90;;;;;;7677112;23;20160;-65
2021/07/31 05:27:16;;;;;;;2.20;1.93;;;21.50;99.90;;;;;;7676873;23;20265;-65
2021/07/31 05:30:18;;;;;;;5.30;2.23;;;21.50;99.90;;;;;;7676699;23;20168;-65
2021/07/31 05:33:21;;;;;;;3.03;2.50;;;21.60;99.90;;;;;;7677272;23;20170;-65
2021/07/31 05:36:23;;;;;;;2.47;2.27;;;21.70;99.90;;;;;;7650672;23;20172;-65
2021/07/31 05:39:25;;;;;;;3.33;2.27;;;21.80;99.90;;;;;;7676820;23;20164;-64
2021/07/31 05:42:28;;;;;;;2.37;2.10;;;21.80;99.90;;;;;;7676928;23;20605;-64
2021/07/31 05:45:30;;;;;;;2.33;2.13;;;21.90;99.90;;;;;;7676272;23;20258;-65
2021/07/31 05:48:32;;;;;;;3.40;2.03;;;22.00;99.50;;;;;;7676674;23;20188;-65
2021/07/31 05:51:34;;;;;;;2.43;2.10;;;22.10;99.60;;;;;;7676916;23;20168;-65
2021/07/31 05:54:37;;;;;;;2.20;2.00;;;22.10;99.00;;;;;;7650580;23;20586;-65
2021/07/31 05:57:39;;;;;;;2.10;1.90;;;22.10;98.90;;;;;;7676594;23;20562;-65
2021/07/31 06:00:42;;;;;;;2.70;1.90;;;22.10;99.20;;;;;;7676692;23;20255;-65
2021/07/31 06:03:44;;;;;;;2.47;2.27;;;22.20;98.90;;;;;;7676732;23;20243;-65
2021/07/31 06:06:46;;;;;;;2.67;2.17;;;22.20;98.80;;;;;;7650076;23;20278;-65
2021/07/31 06:09:53;;;;;;;2.37;2.13;;;22.30;98.70;;;;;;7652837;23;20226;-64
2021/07/31 06:12:56;;;;;;;2.13;1.93;;;22.40;98.70;;;;;;7679205;23;20155;-65
2021/07/31 06:15:59;;;;;;;2.77;1.93;;;22.50;98.10;;;;;;7678721;23;20164;-64
2021/07/31 06:19:01;;;;;;;2.83;1.90;;;22.50;97.80;;;;;;7679109;23;20164;-65
2021/07/31 06:22:04;;;;;;;3.87;1.90;;;22.50;98.00;;;;;;7652378;23;20208;-64
2021/07/31 06:25:08;;;;;;;2.20;2.00;;;22.60;97.80;;;;;;7679266;23;20229;-65
2021/07/31 06:28:10;;;;;;;4.20;2.10;;;22.60;97.60;;;;;;7678439;23;20186;-65
2021/07/31 06:31:13;;;;;;;2.67;2.07;;;22.70;97.30;;;;;;7652628;23;20684;-64
2021/07/31 06:37:34;;;;;;;2.00;1.90;;;22.90;97.00;;;;;;7543498;23;20465;-86
2021/07/31 06:40:37;;;;;;;2.10;1.90;;;22.90;96.90;;;;;;7519812;23;20170;-88
2021/07/31 06:43:39;;;;;;;2.20;1.97;;;23.00;97.30;;;;;;7543681;23;20180;-85
2021/07/31 06:46:44;;;;;;;2.17;1.97;;;23.10;97.20;;;;;;7520077;23;20198;-85
2021/07/31 06:49:47;;;;;;;4.63;2.10;;;23.00;97.00;;;;;;7543506;23;20194;-85
2021/07/31 06:52:49;;;;;;;2.00;1.90;;;23.00;96.70;;;;;;7543866;23;20162;-86
2021/07/31 06:55:51;;;;;;;1.93;1.80;;;23.00;96.80;;;;;;7543378;23;20238;-86
2021/07/31 06:58:53;;;;;;;2.27;2.00;;;23.00;96.80;;;;;;7520020;23;20182;-86
2021/07/31 07:01:56;;;;;;;2.83;2.30;;;23.00;97.00;;;;;;7519550;23;20174;-86
2021/07/31 07:04:59;;;;;;;2.10;1.90;;;23.00;96.70;;;;;;7544147;23;20171;-85
2021/07/31 07:08:01;;;;;;;2.03;1.83;;;23.00;96.80;;;;;;7543022;23;20201;-87
2021/07/31 07:11:05;;;;;;;1.97;1.83;;;23.10;96.70;;;;;;7519540;23;20174;-86
2021/07/31 07:14:13;;;;;;;3.70;2.17;;;23.10;96.70;;;;;;7520578;23;20179;-86
2021/07/31 07:17:15;;;;;;;2.77;2.00;;;23.20;96.70;;;;;;7542921;23;20610;-86
2021/07/31 07:20:18;;;;;;;2.17;1.97;;;23.20;96.40;;;;;;7542927;23;20209;-85
2021/07/31 07:23:20;;;;;;;2.90;2.13;;;23.20;96.40;;;;;;7543072;23;20181;-86
2021/07/31 07:26:22;;;;;;;2.40;2.13;;;23.10;96.40;;;;;;7543180;23;20185;-85
2021/07/31 07:29:25;;;;;;;2.00;1.90;;;23.30;96.60;;;;;;7519590;23;20178;-86
2021/07/31 07:32:27;;;;;;;2.77;2.00;;;23.60;96.00;;;;;;7542875;23;20170;-86
2021/07/31 07:35:30;;;;;;;1.93;1.83;;;24.00;95.80;;;;;;7542943;23;20202;-86
2021/07/31 07:38:32;;;;;;;2.40;2.20;;;24.40;95.00;;;;;;7542912;23;20217;-87
2021/07/31 07:41:35;;;;;;;2.63;2.13;;;24.80;94.10;;;;;;7542870;23;20641;-86
2021/07/31 07:44:37;;;;;;;2.20;2.00;;;25.10;93.60;;;;;;7542836;23;20188;-86
2021/07/31 07:47:39;;;;;;;2.73;2.53;;;25.20;93.20;;;;;;7542332;23;20277;-86
2021/07/31 07:50:41;;;;;;;3.20;2.90;;;25.30;92.60;;;;;;7541493;23;20257;-87
2021/07/31 07:53:44;;;;;;;4.40;2.77;;;25.00;92.30;;;;;;7518122;23;20178;-86
2021/07/31 07:56:47;;;;;;;3.50;2.50;;;24.60;93.00;;;;;;7540650;23;20166;-86
2021/07/31 07:59:49;;;;;;;2.93;2.73;;;24.30;93.70;;;;;;7541131;23;20653;-86
2021/07/31 08:02:54;;;;;;;3.27;2.83;;;24.10;93.70;;;;;;7542568;23;20190;-86
2021/07/31 08:05:56;;;;;;;2.83;2.50;;;24.00;93.80;;;;;;7541162;23;20205;-87
2021/07/31 08:08:59;;;;;;;2.23;2.03;;;24.30;94.30;;;;;;7517916;23;20517;-88
2021/07/31 08:12:01;;;;;;;2.17;1.97;;;24.80;93.00;;;;;;7542222;23;20599;-86
2021/07/31 08:15:04;;;;;;;2.97;2.13;;;25.30;93.30;;;;;;7518749;23;20294;-86
2021/07/31 08:18:06;;;;;;;2.38;2.17;;;26.10;92.20;;;;;;7518157;23;20178;-86
2021/07/31 08:21:09;;;;;;;2.13;1.95;;;26.80;91.50;;;;;;7541540;23;20499;-86
2021/07/31 08:24:11;;;;;;;2.30;2.10;;;27.40;90.20;;;;;;7516421;23;20174;-87
2021/07/31 08:27:13;;;;;;;2.78;2.58;;;28.10;89.30;;;;;;7517615;23;20206;-86
2021/07/31 08:30:16;;;;;;;2.92;2.63;;;28.60;84.10;;;;;;7517153;23;20174;-87
2021/07/31 08:33:18;;;;;;;2.35;2.15;;;28.50;83.30;;;;;;7517241;23;20229;-86
2021/07/31 08:36:20;;;;;;;3.03;2.03;;;28.40;82.50;;;;;;7517481;23;20217;-87
2021/07/31 08:39:23;;;;;;;2.95;2.55;;;28.00;82.30;;;;;;7541881;23;20182;-87
2021/07/31 08:42:25;;;;;;;2.75;2.55;;;27.70;82.60;;;;;;7541647;23;20213;-86
2021/07/31 08:45:27;;;;;;;2.75;2.53;;;27.10;83.40;;;;;;7541155;23;20475;-87
2021/07/31 08:48:30;;;;;;;2.75;2.55;;;26.70;85.20;;;;;;7542637;23;20181;-87
2021/07/31 08:51:35;;;;;;;2.65;2.45;;;26.30;84.10;;;;;;7519211;23;20178;-85
2021/07/31 08:54:38;;;;;;;3.03;2.83;;;26.10;86.50;;;;;;7517529;23;20256;-84
2021/07/31 08:57:41;;;;;;;2.88;2.67;;;26.00;87.70;;;;;;7539815;23;20210;-86
2021/07/31 09:00:43;;;;;;;2.75;2.38;;;26.00;89.10;;;;;;7517318;23;20221;-85
2021/07/31 09:03:48;;;;;;;2.72;2.50;;;26.20;90.00;;;;;;7541801;23;20181;-85
2021/07/31 09:06:50;;;;;;;2.40;2.20;;;26.30;90.20;;;;;;7540231;23;20202;-85
2021/07/31 09:09:53;;;;;;;2.63;2.30;;;26.40;89.20;;;;;;7516418;23;20261;-85
2021/07/31 09:15:44;;;;;;;3.10;2.75;;;26.90;89.10;;;;;;6326406;27;20633;-70
2021/07/31 09:18:47;;;;;;;3.17;2.88;;;27.40;90.20;;;;;;6331486;28;20261;-70
2021/07/31 09:21:50;;;;;;;3.20;2.90;;;27.90;86.40;;;;;;6318250;28;20197;-68
2021/07/31 09:25:13;;;;;;;3.63;3.33;;;28.20;85.80;;;;;;6319070;28;20197;-71
2021/07/31 09:28:19;;;;;;;4.85;3.25;;;28.80;85.70;;;;;;6319327;28;20190;-71
2021/07/31 09:31:21;;;;;;;3.20;3.00;;;29.10;81.30;;;;;;6332566;28;20186;-71
2021/07/31 09:34:28;;;;;;;3.47;3.17;;;29.00;77.90;;;;;;6322489;28;20209;-70
2021/07/31 09:37:30;;;;;;;4.07;3.78;;;29.20;79.70;;;;;;6329198;28;20544;-71
2021/07/31 09:40:33;;;;;;;3.55;3.25;;;29.40;78.40;;;;;;6321085;28;20193;-71
2021/07/31 09:43:36;;;;;;;4.07;3.40;;;29.40;77.50;;;;;;6314019;28;20220;-70
2021/07/31 09:46:39;;;;;;;3.78;3.47;;;29.60;76.30;;;;;;6322006;28;20195;-71
2021/07/31 09:49:42;;;;;;;4.03;3.60;;;29.90;76.10;;;;;;6321002;28;20193;-73
2021/07/31 09:52:45;;;;;;;6.70;3.47;;;30.40;73.10;;;;;;6296358;28;20277;-71
2021/07/31 09:55:50;;;;;;;3.60;3.30;;;30.60;68.40;;;;;;6315121;28;20190;-71
2021/07/31 09:58:52;;;;;;;3.88;3.58;;;30.80;69.20;;;;;;5414021;27;10000960;-72
2021/07/31 10:02:03;;;;;;;4.38;3.83;;;31.20;68.40;;;;;;6266760;28;20187;-70
2021/07/31 10:05:06;;;;;;;3.88;3.58;;;31.30;66.00;;;;;;6265541;28;20210;-71
2021/07/31 10:08:10;;;;;;;4.00;3.50;;;31.60;65.80;;;;;;6276475;28;20215;-71
2021/07/31 10:11:12;;;;;;;4.28;3.80;;;31.80;64.60;;;;;;6276447;28;20272;-70
2021/07/31 10:14:15;;;;;;;3.72;3.42;;;32.00;63.20;;;;;;6251629;28;20710;-71
2021/07/31 10:17:25;;;;;;;4.00;3.70;;;31.80;61.10;;;;;;6263883;28;20256;-71
2021/07/31 10:20:30;;;;;;;4.28;3.90;;;31.90;61.60;;;;;;6271550;28;20780;-70
2021/07/31 10:24:00;;;;;;;4.03;3.72;;;32.00;60.40;;;;;;6278435;28;20188;-71
2021/07/31 10:27:18;;;;;;;4.28;3.88;;;32.10;59.90;;;;;;6261175;28;20206;-70
2021/07/31 10:30:29;;;;;;;4.75;4.30;;;32.10;62.50;;;;;;6251651;28;20192;-70
2021/07/31 10:33:45;;;;;;;4.07;3.67;;;32.50;61.20;;;;;;6248416;28;20591;-71
2021/07/31 10:36:51;;;;;;;4.25;3.85;;;32.60;59.10;;;;;;6263216;28;20223;-70
2021/07/31 10:40:01;;;;;;;4.63;3.60;;;32.40;59.20;;;;;;6258130;28;20195;-70
2021/07/31 10:43:05;;;;;;;5.05;3.85;;;32.00;58.80;;;;;;6247105;28;20525;-71
2021/07/31 10:46:19;;;;;;;4.15;3.75;;;32.30;58.40;;;;;;6246389;28;20189;-70
2021/07/31 10:49:38;;;;;;;3.97;3.65;;;32.40;58.60;;;;;;6271681;28;20246;-71
2021/07/31 10:53:02;;;;;;;4.03;3.60;;;32.60;57.30;;;;;;6247050;28;20246;-71
2021/07/31 10:56:04;;;;;;;4.78;4.38;;;32.60;57.30;;;;;;6263612;28;20192;-70
2021/07/31 10:59:14;;;;;;;4.32;3.92;;;32.30;56.10;;;;;;6254458;28;20194;-71
2021/07/31 11:02:34;;;;;;;5.28;3.75;;;31.90;57.30;;;;;;6257612;28;20321;-70
2021/07/31 11:05:58;;;;;;;4.95;3.78;;;31.60;56.50;;;;;;6257162;28;20222;-70
2021/07/31 11:09:12;;;;;;;4.00;3.70;;;31.40;58.20;;;;;;6266302;28;20191;-71
2021/07/31 11:12:41;;;;;;;5.18;3.65;;;31.70;57.20;;;;;;6248688;28;20202;-71
2021/07/31 11:15:56;;;;;;;5.05;4.03;;;31.70;58.50;;;;;;6252816;28;20215;-69
2021/07/31 11:19:00;;;;;;;3.53;3.22;;;31.90;57.20;;;;;;6246798;28;20723;-70
2021/07/31 11:22:03;;;;;;;3.90;3.60;;;32.10;57.30;;;;;;6247367;28;20194;-70
2021/07/31 11:25:07;;;;;;;4.57;4.00;;;32.20;56.70;;;;;;6246382;28;20302;-71
2021/07/31 11:28:09;;;;;;;3.40;3.10;;;32.20;55.80;;;;;;6245553;28;20215;-73
2021/07/31 11:31:18;;;;;;;3.42;3.15;;;32.40;56.00;;;;;;6246634;28;20188;-70
2021/07/31 11:34:20;;;;;;;3.38;3.17;;;32.50;53.60;;;;;;6242398;28;20208;-70
2021/07/31 11:37:24;;;;;;;2.88;2.67;;;32.10;55.20;;;;;;6234138;28;20197;-68
2021/07/31 11:40:26;;;;;;;3.63;3.33;;;32.30;55.70;;;;;;6243876;28;20194;-70
2021/07/31 11:43:28;;;;;;;3.45;3.15;;;32.50;56.20;;;;;;6269471;28;20706;-70
2021/07/31 11:46:47;;;;;;;3.08;2.78;;;32.60;54.50;;;;;;6245973;28;20196;-70
2021/07/31 11:49:49;;;;;;;3.20;2.90;;;32.40;53.20;;;;;;6255593;28;20196;-72
2021/07/31 11:52:51;;;;;;;2.95;2.72;;;32.10;55.10;;;;;;6243321;28;20189;-72
2021/07/31 11:56:23;;;;;;;2.53;2.33;;;32.00;55.00;;;;;;6246548;28;20277;-72
2021/07/31 11:59:34;;;;;;;3.30;2.85;;;32.00;54.50;;;;;;6245389;28;20195;-71
2021/07/31 12:02:37;;;;;;;2.67;2.47;;;32.00;55.40;;;;;;6245080;28;20588;-71
2021/07/31 12:05:40;;;;;;;3.33;2.25;;;32.10;55.10;;;;;;6245142;28;20203;-71
2021/07/31 12:08:46;;;;;;;2.70;2.50;;;32.30;55.60;;;;;;6245111;28;20651;-71
2021/07/31 12:11:52;;;;;;;4.03;2.45;;;32.40;55.40;;;;;;6246577;28;20212;-72
2021/07/31 12:15:12;;;;;;;2.60;2.40;;;32.40;55.20;;;;;;6245878;28;20235;-72
2021/07/31 12:18:16;;;;;;;8.02;2.38;;;32.60;55.00;;;;;;6240420;28;20199;-70
2021/07/31 12:21:28;;;;;;;2.78;2.58;;;32.70;55.80;;;;;;6245630;28;20219;-70
2021/07/31 12:24:30;;;;;;;2.42;2.22;;;32.90;55.30;;;;;;6245798;28;20275;-70
2021/07/31 12:28:09;;;;;;;2.00;1.90;;;33.00;54.60;;;;;;6244317;28;20196;-71
2021/07/31 12:31:29;;;;;;;2.42;2.22;;;33.20;54.00;;;;;;6245635;28;20655;-70
2021/07/31 12:34:32;;;;;;;2.30;2.20;;;33.10;53.90;;;;;;6245513;28;20205;-69
2021/07/31 12:37:47;;;;;;;2.20;2.10;;;32.80;54.60;;;;;;6245544;28;20200;-69
2021/07/31 12:40:58;;;;;;;2.95;2.65;;;32.60;54.90;;;;;;6260746;28;20621;-71
2021/07/31 12:44:01;;;;;;;2.50;2.30;;;32.50;54.50;;;;;;6244345;28;20188;-70
2021/07/31 12:47:05;;;;;;;5.38;2.50;;;32.40;55.10;;;;;;6244909;28;20199;-71
2021/07/31 12:50:08;;;;;;;2.10;1.88;;;32.00;53.90;;;;;;6245344;28;20192;-70
2021/07/31 12:53:12;;;;;;;2.60;2.40;;;32.00;55.20;;;;;;6245364;28;20618;-70
2021/07/31 12:56:15;;;;;;;2.65;2.10;;;32.10;54.40;;;;;;6260469;28;20211;-71
2021/07/31 12:59:18;;;;;;;3.85;2.15;;;32.30;55.00;;;;;;6260297;28;20198;-71
2021/07/31 13:02:28;;;;;;;2.50;2.20;;;32.60;54.50;;;;;;6243640;28;20579;-71
2021/07/31 13:05:30;;;;;;;2.33;2.10;;;32.80;53.80;;;;;;6245244;28;20714;-70
2021/07/31 13:08:32;;;;;;;2.05;1.85;;;33.00;52.70;;;;;;6243905;28;20305;-69
2021/07/31 13:11:35;;;;;;;2.08;1.90;;;33.10;52.50;;;;;;6245041;28;20596;-70
2021/07/31 13:14:39;;;;;;;2.65;1.52;;;33.20;51.30;;;;;;6243334;28;20224;-70
2021/07/31 13:17:42;;;;;;;2.22;1.90;;;33.50;51.20;;;;;;6244745;28;20185;-72
2021/07/31 13:20:44;;;;;;;3.08;2.13;;;33.50;51.00;;;;;;6243784;28;20220;-70
2021/07/31 13:23:46;;;;;;;2.35;2.15;;;33.60;51.60;;;;;;6244940;28;20573;-70
2021/07/31 13:26:49;;;;;;;2.35;2.15;;;33.90;52.30;;;;;;6243444;28;20208;-71
2021/07/31 13:29:51;;;;;;;2.28;2.08;;;34.00;50.50;;;;;;6243450;28;20250;-70
2021/07/31 13:32:54;;;;;;;2.05;1.95;;;33.60;50.90;;;;;;6244911;28;20318;-71
2021/07/31 13:35:56;;;;;;;2.38;2.17;;;33.60;51.60;;;;;;6244621;28;20243;-71
2021/07/31 13:39:00;;;;;;;1.88;1.77;;;33.80;49.90;;;;;;6244807;28;20184;-70
2021/07/31 13:42:03;;;;;;;2.00;1.90;;;34.10;50.10;;;;;;6243765;28;20196;-71
2021/07/31 13:45:06;;;;;;;2.58;2.38;;;34.40;49.60;;;;;;6244503;28;20196;-71
2021/07/31 13:48:08;;;;;;;2.88;2.50;;;34.50;47.90;;;;;;6243108;28;20560;-71
2021/07/31 13:51:10;;;;;;;2.63;2.40;;;34.70;48.30;;;;;;6243503;28;20192;-72
2021/07/31 13:54:13;;;;;;;2.58;2.38;;;35.00;48.40;;;;;;6243156;28;20690;-72
2021/07/31 13:57:16;;;;;;;2.72;2.53;;;35.60;48.10;;;;;;6259564;28;20335;-71
2021/07/31 14:00:18;;;;;;;3.03;2.72;;;36.20;47.80;;;;;;6245887;28;20551;-72
2021/07/31 14:03:21;;;;;;;2.92;2.72;;;36.60;46.50;;;;;;6249348;28;20263;-70
2021/07/31 14:06:26;;;;;;;4.03;2.63;;;36.90;45.60;;;;;;6249481;28;20560;-70
2021/07/31 14:09:28;;;;;;;2.72;2.53;;;37.30;44.70;;;;;;6248516;28;20180;-70
2021/07/31 14:12:31;;;;;;;3.38;2.25;;;37.80;43.60;;;;;;6247667;28;20208;-72
2021/07/31 14:15:34;;;;;;;4.22;2.55;;;38.30;41.90;;;;;;6248075;28;20307;-70
2021/07/31 14:18:36;;;;;;;3.72;2.72;;;38.60;41.90;;;;;;6248559;28;20669;-71
2021/07/31 14:21:40;;;;;;;3.17;2.78;;;38.90;41.90;;;;;;6247653;28;20273;-70
2021/07/31 14:24:43;;;;;;;3.20;2.88;;;39.20;41.70;;;;;;6247459;28;20655;-70
2021/07/31 14:27:45;;;;;;;3.20;2.90;;;39.80;40.00;;;;;;6248426;28;20196;-70
2021/07/31 14:30:47;;;;;;;3.45;2.53;;;39.80;39.10;;;;;;6248593;28;20330;-69
2021/07/31 14:33:49;;;;;;;2.58;2.38;;;40.00;39.60;;;;;;6248621;28;20199;-70
2021/07/31 14:36:53;;;;;;;3.80;2.67;;;40.00;39.70;;;;;;6248078;28;20219;-71
2021/07/31 14:39:55;;;;;;;2.80;2.60;;;39.90;40.40;;;;;;6247091;28;20682;-69
2021/07/31 14:42:58;;;;;;;2.78;2.58;;;40.00;39.90;;;;;;6263850;28;20258;-70
2021/07/31 14:46:11;;;;;;;2.55;2.35;;;40.30;39.20;;;;;;6248159;28;20589;-69
2021/07/31 14:49:13;;;;;;;2.50;2.30;;;40.50;37.80;;;;;;6248077;28;20569;-70
2021/07/31 14:52:16;;;;;;;2.85;2.65;;;40.70;37.80;;;;;;6248034;28;20219;-70
2021/07/31 14:55:18;;;;;;;2.70;2.50;;;41.00;36.90;;;;;;6263097;28;20203;-69
2021/07/31 14:58:21;;;;;;;2.83;2.60;;;41.30;36.70;;;;;;6247817;28;20184;-70
2021/07/31 15:01:23;;;;;;;2.80;2.60;;;41.50;36.10;;;;;;6248031;28;20184;-69
2021/07/31 15:04:28;;;;;;;2.53;2.33;;;41.70;36.80;;;;;;6247707;28;20207;-70
2021/07/31 15:07:30;;;;;;;2.60;2.40;;;42.00;36.40;;;;;;6262909;28;20199;-71
2021/07/31 15:10:33;;;;;;;2.50;2.30;;;42.10;36.40;;;;;;6246619;28;20199;-70
2021/07/31 15:13:36;;;;;;;2.83;2.35;;;42.20;35.70;;;;;;6247512;28;20471;-69
2021/07/31 15:16:38;;;;;;;3.47;2.67;;;42.20;36.30;;;;;;6246220;28;20564;-69
2021/07/31 15:19:41;;;;;;;2.50;2.30;;;42.20;35.30;;;;;;6262436;28;20199;-71
2021/07/31 15:22:43;;;;;;;2.47;2.28;;;42.00;35.70;;;;;;6262455;28;20184;-69
2021/07/31 15:25:45;;;;;;;3.15;2.60;;;42.20;36.40;;;;;;6247136;28;20192;-69
2021/07/31 15:28:48;;;;;;;2.55;2.35;;;42.10;35.90;;;;;;6247242;28;20570;-69
2021/07/31 15:31:50;;;;;;;2.45;2.25;;;41.70;34.80;;;;;;6247111;28;20199;-70
2021/07/31 15:34:52;;;;;;;2.85;2.50;;;41.20;35.70;;;;;;6262101;28;20228;-69
2021/07/31 15:37:58;;;;;;;2.78;2.08;;;41.00;37.50;;;;;;6245377;28;20666;-71
2021/07/31 15:41:00;;;;;;;2.60;2.40;;;40.90;36.00;;;;;;6262063;28;20269;-70
2021/07/31 15:44:03;;;;;;;2.60;2.22;;;40.90;36.60;;;;;;6261973;28;20665;-70
2021/07/31 15:47:05;;;;;;;2.42;2.22;;;40.70;36.80;;;;;;6245256;28;20220;-69
2021/07/31 15:50:09;;;;;;;2.72;2.53;;;40.50;37.90;;;;;;6246655;28;20187;-69
2021/07/31 15:53:11;;;;;;;3.17;2.00;;;39.80;38.70;;;;;;6246958;28;20194;-71
2021/07/31 15:56:14;;;;;;;2.35;1.83;;;39.80;37.70;;;;;;6246617;28;20708;-71
2021/07/31 15:59:19;;;;;;;2.13;1.95;;;40.30;37.20;;;;;;6246155;28;20192;-71
2021/07/31 16:02:21;;;;;;;2.85;2.15;;;40.60;37.50;;;;;;6246392;28;20337;-71
2021/07/31 16:05:25;;;;;;;2.03;1.92;;;40.90;36.60;;;;;;6245269;28;20227;-70
2021/07/31 16:08:27;;;;;;;3.08;2.00;;;40.40;38.00;;;;;;6261342;28;20207;-71